createdAt,value
2017-04-08T00:02:03.094Z,42.8
2017-04-08T00:07:03.841Z,42.8
2017-04-08T00:12:03.482Z,42.8
2017-04-08T00:17:04.224Z,42.6
2017-04-08T00:22:03.320Z,42.7
2017-04-08T00:27:03.866Z,42.6
2017-04-08T00:32:03.504Z,42.7
2017-04-08T00:37:03.046Z,42.7
2017-04-08T00:42:03.566Z,42.7
2017-04-08T00:47:03.467Z,42.7
2017-04-08T00:52:03.769Z,42.6
2017-04-08T00:57:03.146Z,42.5
2017-04-08T01:02:03.628Z,42.5
2017-04-08T01:07:03.502Z,42.4
2017-04-08T01:12:03.357Z,42.4
2017-04-08T01:17:03.626Z,42.4
2017-04-08T01:22:03.873Z,42.3
2017-04-08T01:27:03.585Z,42.3
2017-04-08T01:32:03.542Z,42.3
2017-04-08T01:37:03.294Z,42.3
2017-04-08T01:42:03.785Z,42.3
2017-04-08T01:47:03.537Z,42.2
2017-04-08T01:52:03.509Z,42.3
2017-04-08T01:57:03.577Z,42.3
2017-04-08T02:02:03.593Z,42.3
2017-04-08T02:07:03.806Z,42.5
2017-04-08T02:12:03.191Z,42.3
2017-04-08T02:17:03.939Z,42.2
2017-04-08T02:22:03.444Z,42.2
2017-04-08T02:27:03.410Z,42.2
2017-04-08T02:32:03.199Z,42.1
2017-04-08T02:37:03.146Z,42.0
2017-04-08T02:42:03.401Z,41.9
2017-04-08T02:47:03.660Z,41.9
2017-04-08T02:52:03.060Z,41.9
2017-04-08T02:57:03.453Z,41.9
2017-04-08T03:02:03.959Z,41.9
2017-04-08T03:07:03.415Z,41.8
2017-04-08T03:12:03.751Z,41.8
2017-04-08T03:17:03.285Z,41.8
2017-04-08T03:22:03.493Z,41.8
2017-04-08T03:27:03.735Z,41.8
2017-04-08T03:32:03.189Z,41.8
2017-04-08T03:37:03.469Z,41.8
2017-04-08T03:42:03.535Z,41.6
2017-04-08T03:47:03.887Z,41.6
2017-04-08T03:52:03.227Z,41.7
2017-04-08T03:57:03.599Z,41.6
2017-04-08T04:02:03.069Z,41.4
2017-04-08T04:07:03.610Z,41.5
2017-04-08T04:12:03.530Z,41.4
2017-04-08T04:17:14.989Z,41.7
2017-04-08T04:22:03.273Z,41.6
2017-04-08T04:27:03.827Z,41.5
2017-04-08T04:32:31.988Z,41.5
2017-04-08T04:37:03.409Z,41.5
2017-04-08T04:42:03.309Z,41.5
2017-04-08T04:47:28.803Z,41.4
2017-04-08T04:52:03.493Z,41.5
2017-04-08T04:57:03.741Z,41.5
2017-04-08T05:07:03.299Z,41.4
2017-04-08T05:12:03.648Z,41.4
2017-04-08T05:17:26.662Z,41.2
2017-04-08T05:22:03.203Z,41.2
2017-04-08T05:27:03.649Z,41.1
2017-04-08T05:32:27.793Z,41.1
2017-04-08T05:37:03.132Z,40.9
2017-04-08T05:42:03.384Z,40.9
2017-04-08T05:47:28.582Z,40.8
2017-04-08T05:52:03.207Z,40.7
2017-04-08T05:57:03.550Z,40.6
2017-04-08T06:02:27.363Z,40.5
2017-04-08T06:07:03.815Z,40.4
2017-04-08T06:12:03.306Z,40.5
2017-04-08T06:17:25.336Z,40.4
2017-04-08T06:22:03.714Z,40.4
2017-04-08T06:27:03.132Z,40.5
2017-04-08T06:32:23.547Z,40.5
2017-04-08T06:37:03.474Z,40.5
2017-04-08T06:42:03.769Z,40.6
2017-04-08T06:47:27.966Z,40.6
2017-04-08T06:52:03.436Z,40.6
2017-04-08T06:57:03.916Z,40.8
2017-04-08T07:02:27.829Z,40.8
2017-04-08T07:07:03.910Z,40.9
2017-04-08T07:12:03.157Z,41.0
2017-04-08T07:17:28.492Z,41.1
2017-04-08T07:22:03.660Z,41.1
2017-04-08T07:27:03.064Z,41.2
2017-04-08T07:32:24.955Z,41.3
2017-04-08T07:37:02.998Z,41.4
2017-04-08T07:42:03.547Z,41.4
2017-04-08T07:47:28.878Z,41.6
2017-04-08T07:52:03.628Z,41.8
2017-04-08T07:57:03.147Z,42.0
2017-04-08T08:02:15.202Z,42.2
2017-04-08T08:07:03.558Z,42.3
2017-04-08T08:12:03.209Z,42.3
2017-04-08T08:17:25.131Z,42.5
2017-04-08T08:22:03.655Z,42.7
2017-04-08T08:27:03.181Z,42.8
2017-04-08T08:32:24.200Z,43.0
2017-04-08T08:37:03.962Z,43.2
2017-04-08T08:42:03.363Z,43.2
2017-04-08T08:47:25.037Z,43.9
2017-04-08T08:52:03.462Z,43.9
2017-04-08T08:57:03.070Z,44.1
2017-04-08T09:02:26.798Z,44.1
2017-04-08T09:07:03.107Z,44.1
2017-04-08T09:12:03.912Z,44.5
2017-04-08T09:17:24.402Z,44.5
2017-04-08T09:22:03.064Z,44.6
2017-04-08T09:27:03.918Z,44.6
2017-04-08T09:32:23.574Z,44.8
2017-04-08T09:37:03.636Z,45.1
2017-04-08T09:42:03.139Z,45.0
2017-04-08T09:47:24.347Z,45.2
2017-04-08T09:52:03.047Z,45.6
2017-04-08T09:57:03.738Z,45.6
2017-04-08T10:02:24.366Z,45.5
2017-04-08T10:07:03.680Z,45.5
2017-04-08T10:12:03.568Z,45.7
2017-04-08T10:17:23.899Z,46.0
2017-04-08T10:22:03.938Z,45.9
2017-04-08T10:27:03.759Z,46.2
2017-04-08T10:32:23.780Z,46.1
2017-04-08T10:37:02.980Z,46.3
2017-04-08T10:42:03.136Z,46.8
2017-04-08T10:47:27.319Z,46.6
2017-04-08T10:52:02.929Z,46.6
2017-04-08T10:57:03.769Z,47.0
2017-04-08T11:02:23.575Z,47.0
2017-04-08T11:07:03.464Z,47.3
2017-04-08T11:12:03.169Z,47.2
2017-04-08T11:17:24.216Z,47.2
2017-04-08T11:22:03.103Z,47.2
2017-04-08T11:27:03.952Z,47.5
2017-04-08T11:32:27.682Z,47.5
2017-04-08T11:37:03.314Z,47.8
2017-04-08T11:42:02.937Z,47.8
2017-04-08T11:47:24.251Z,47.7
2017-04-08T11:52:03.617Z,47.7
2017-04-08T11:57:03.582Z,48.0
2017-04-08T12:02:27.571Z,48.1
2017-04-08T12:07:03.655Z,47.9
2017-04-08T12:12:03.461Z,48.2
2017-04-08T12:17:24.619Z,48.1
2017-04-08T12:22:03.635Z,47.8
2017-04-08T12:27:03.700Z,47.9
2017-04-08T12:32:23.759Z,48.2
2017-04-08T12:37:03.467Z,48.0
2017-04-08T12:42:03.750Z,47.9
2017-04-08T12:47:23.982Z,47.9
2017-04-08T12:52:03.860Z,48.5
2017-04-08T12:57:03.365Z,48.5
2017-04-08T13:02:23.939Z,48.9
2017-04-08T13:07:03.095Z,48.9
2017-04-08T13:12:04.018Z,48.8
2017-04-08T13:17:24.241Z,48.7
2017-04-08T13:22:03.874Z,49.3
2017-04-08T13:27:03.689Z,49.3
2017-04-08T13:32:23.826Z,49.1
2017-04-08T13:37:03.382Z,49.3
2017-04-08T13:42:02.972Z,49.3
2017-04-08T13:47:24.387Z,49.6
2017-04-08T13:52:03.522Z,49.8
2017-04-08T13:57:03.062Z,49.1
2017-04-08T14:02:24.034Z,49.8
2017-04-08T14:07:03.540Z,49.8
2017-04-08T14:12:03.438Z,49.4
2017-04-08T14:17:25.250Z,48.9
2017-04-08T14:22:03.153Z,48.4
2017-04-08T14:27:03.312Z,48.4
2017-04-08T14:32:24.220Z,47.5
2017-04-08T14:37:03.600Z,43.6
2017-04-08T14:42:03.732Z,42.3
2017-04-08T14:47:24.846Z,41.1
2017-04-08T14:52:02.994Z,41.1
2017-04-08T14:57:03.208Z,38.6
2017-04-08T15:02:28.358Z,37.6
2017-04-08T15:07:03.099Z,36.9
2017-04-08T15:12:03.169Z,36.9
2017-04-08T15:17:24.472Z,36.0
2017-04-08T15:22:03.718Z,36.5
2017-04-08T15:27:03.617Z,35.5
2017-04-08T15:32:23.787Z,35.0
2017-04-08T15:37:03.285Z,34.9
2017-04-08T15:42:03.919Z,34.9
2017-04-08T15:47:23.406Z,34.9
2017-04-08T15:52:03.869Z,34.3
2017-04-08T15:57:03.563Z,34.7
2017-04-08T16:02:21.803Z,34.6
2017-04-08T16:07:03.345Z,34.8
2017-04-08T16:12:03.272Z,34.7
2017-04-08T16:17:04.718Z,35.4
2017-04-08T16:22:03.473Z,34.9
2017-04-08T16:27:04.001Z,35.2
2017-04-08T16:32:23.484Z,35.7
2017-04-08T16:37:04.163Z,35.5
2017-04-08T16:42:03.519Z,35.8
2017-04-08T16:47:20.360Z,35.8
2017-04-08T16:52:03.367Z,37.5
2017-04-08T16:57:03.779Z,37.5
2017-04-08T17:02:21.593Z,38.1
2017-04-08T17:07:03.323Z,38.3
2017-04-08T17:12:03.438Z,38.8
2017-04-08T17:17:22.111Z,39.5
2017-04-08T17:22:03.478Z,39.5
2017-04-08T17:27:03.193Z,40.3
2017-04-08T17:32:23.748Z,40.4
2017-04-08T17:37:03.762Z,42.0
2017-04-08T17:42:03.571Z,42.0
2017-04-08T17:47:26.581Z,45.0
2017-04-08T17:52:03.874Z,44.9
2017-04-08T17:57:03.816Z,46.3
2017-04-08T18:02:21.917Z,46.5
2017-04-08T18:07:03.637Z,46.4
2017-04-08T18:12:03.793Z,46.4
2017-04-08T18:17:23.518Z,46.2
2017-04-08T18:22:03.412Z,46.2
2017-04-08T18:27:03.365Z,46.0
2017-04-08T18:32:21.662Z,45.9
2017-04-08T18:37:03.565Z,45.9
2017-04-08T18:42:03.097Z,46.0
2017-04-08T18:47:10.428Z,46.0
2017-04-08T18:52:03.464Z,45.9
2017-04-08T18:57:03.520Z,45.9
2017-04-08T19:02:03.394Z,45.9
2017-04-08T19:07:03.881Z,45.8
2017-04-08T19:12:03.585Z,45.8
2017-04-08T19:17:03.833Z,45.8
2017-04-08T19:22:03.571Z,45.6
2017-04-08T19:27:03.986Z,45.6
2017-04-08T19:32:03.461Z,45.6
2017-04-08T19:37:03.617Z,45.6
2017-04-08T19:42:02.983Z,45.6
2017-04-08T19:47:03.261Z,45.5
2017-04-08T19:52:03.188Z,45.4
2017-04-08T19:57:03.434Z,45.3
2017-04-08T20:02:03.443Z,45.3
2017-04-08T20:07:03.301Z,45.4
2017-04-08T20:12:03.313Z,45.3
2017-04-08T20:17:03.393Z,45.3
2017-04-08T20:22:03.290Z,45.3
2017-04-08T20:27:03.520Z,45.1
2017-04-08T20:32:03.460Z,45.1
2017-04-08T20:37:03.470Z,45.2
2017-04-08T20:42:03.307Z,45.2
2017-04-08T20:47:03.488Z,45.2
2017-04-08T20:52:03.090Z,45.3
2017-04-08T20:57:03.265Z,45.1
2017-04-08T21:02:03.306Z,45.0
2017-04-08T21:07:03.343Z,45.0
2017-04-08T21:12:03.304Z,45.0
2017-04-08T21:17:03.318Z,45.0
2017-04-08T21:22:03.713Z,45.0
2017-04-08T21:27:03.156Z,44.9
2017-04-08T21:32:03.546Z,44.8
2017-04-08T21:37:03.225Z,44.7
2017-04-08T21:42:03.014Z,44.7
2017-04-08T21:47:03.355Z,44.7
2017-04-08T21:52:03.361Z,44.6
2017-04-08T21:57:03.894Z,44.6
2017-04-08T22:02:03.708Z,44.5
2017-04-08T22:07:03.340Z,44.5
2017-04-08T22:12:03.697Z,44.5
2017-04-08T22:22:03.505Z,44.4
2017-04-08T22:27:03.349Z,44.4
2017-04-08T22:32:03.165Z,44.4
2017-04-08T22:37:03.899Z,44.4
2017-04-08T22:42:03.653Z,44.3
2017-04-08T22:47:03.441Z,44.2
2017-04-08T22:52:03.783Z,44.3
2017-04-08T22:57:03.220Z,44.3
2017-04-08T23:02:03.279Z,44.0
2017-04-08T23:07:03.236Z,44.0
2017-04-08T23:12:03.902Z,43.9
2017-04-08T23:17:03.679Z,44.0
2017-04-08T23:22:03.801Z,43.9
2017-04-08T23:27:03.487Z,43.8
2017-04-08T23:32:03.102Z,44.1
2017-04-08T23:37:03.394Z,43.8
2017-04-08T23:42:03.037Z,43.8
2017-04-08T23:47:03.654Z,43.9
2017-04-08T23:52:03.878Z,43.7
2017-04-08T23:57:03.341Z,43.7
